createdAt,value
2022-12-16T00:02:26.697Z,80.07
2022-12-16T00:05:50.068Z,74.97
2022-12-16T00:09:16.122Z,74.43
2022-12-16T00:12:39.120Z,75.50
2022-12-16T00:16:06.175Z,72.93
2022-12-16T00:19:29.153Z,68.83
2022-12-16T00:22:52.926Z,74.00
2022-12-16T00:26:17.568Z,70.20
2022-12-16T00:29:40.549Z,67.17
2022-12-16T00:33:03.526Z,68.23
2022-12-16T00:36:26.458Z,70.00
2022-12-16T00:39:49.342Z,70.67
2022-12-16T00:43:14.209Z,65.83
2022-12-16T00:46:37.113Z,70.50
2022-12-16T00:50:00.024Z,64.63
2022-12-16T00:53:24.196Z,77.93
2022-12-16T00:56:47.113Z,68.27
2022-12-16T01:00:13.600Z,67.03
2022-12-16T01:03:37.367Z,70.77
2022-12-16T01:07:00.663Z,70.93
2022-12-16T01:10:24.992Z,71.37
2022-12-16T01:13:51.166Z,72.53
2022-12-16T01:17:16.462Z,72.20
2022-12-16T01:20:39.421Z,71.10
2022-12-16T01:24:02.285Z,73.13
2022-12-16T01:27:25.256Z,73.67
2022-12-16T01:30:48.171Z,75.37
2022-12-16T01:34:12.458Z,71.67
2022-12-16T01:37:35.611Z,64.87
2022-12-16T01:40:59.380Z,67.40
2022-12-16T01:44:24.501Z,84.23
2022-12-16T01:47:47.431Z,74.23
2022-12-16T01:51:17.016Z,77.60
2022-12-16T01:54:44.202Z,80.60
2022-12-16T01:58:10.250Z,80.33
2022-12-16T02:01:33.454Z,77.53
2022-12-16T02:05:14.619Z,78.93
2022-12-16T02:08:38.894Z,81.33
2022-12-16T02:12:18.876Z,73.53
2022-12-16T02:15:47.265Z,78.00
2022-12-16T02:19:30.441Z,72.37
2022-12-16T02:23:11.809Z,83.23
2022-12-16T02:27:17.697Z,71.00
2022-12-16T02:31:05.471Z,70.17
2022-12-16T02:34:33.243Z,79.90
2022-12-16T02:38:06.555Z,80.07
2022-12-16T02:41:39.425Z,73.80
2022-12-16T02:45:05.074Z,82.13
2022-12-16T02:48:29.354Z,85.40
2022-12-16T02:51:52.605Z,76.87
2022-12-16T02:55:16.072Z,75.70
2022-12-16T02:58:46.586Z,79.50
2022-12-16T03:02:15.729Z,81.53
2022-12-16T03:05:43.118Z,79.07
2022-12-16T03:09:09.740Z,72.30
2022-12-16T03:12:34.912Z,76.97
2022-12-16T03:16:01.276Z,79.97
2022-12-16T03:19:25.945Z,74.00
2022-12-16T03:22:54.561Z,81.23
2022-12-16T03:26:22.648Z,74.57
2022-12-16T03:29:51.908Z,79.33
2022-12-16T03:33:22.465Z,68.30
2022-12-16T03:36:50.331Z,77.33
2022-12-16T03:40:15.675Z,79.67
2022-12-16T03:43:39.371Z,72.30
2022-12-16T03:47:02.464Z,81.30
2022-12-16T03:50:28.964Z,80.80
2022-12-16T03:53:51.884Z,79.30
2022-12-16T03:57:16.168Z,85.80
2022-12-16T04:00:39.065Z,78.20
2022-12-16T04:04:02.064Z,88.33
2022-12-16T04:07:25.200Z,74.10
2022-12-16T04:11:09.108Z,77.90
2022-12-16T04:14:53.580Z,76.63
2022-12-16T04:18:36.814Z,81.33
2022-12-16T04:22:17.104Z,78.87
2022-12-16T04:25:40.144Z,77.87
2022-12-16T04:29:03.071Z,73.70
2022-12-16T04:32:27.644Z,85.33
2022-12-16T04:36:08.029Z,78.90
2022-12-16T04:39:48.471Z,80.53
2022-12-16T04:43:28.871Z,72.53
2022-12-16T04:47:09.564Z,74.43
2022-12-16T04:50:56.818Z,73.30
2022-12-16T04:54:37.416Z,77.20
2022-12-16T04:58:21.010Z,75.00
2022-12-16T05:02:01.760Z,72.53
2022-12-16T05:05:42.240Z,65.07
2022-12-16T05:09:25.602Z,78.57
2022-12-16T05:13:06.259Z,73.40
2022-12-16T05:16:48.712Z,72.57
2022-12-16T05:20:29.930Z,80.10
2022-12-16T05:24:10.663Z,78.37
2022-12-16T05:27:52.335Z,74.77
2022-12-16T05:31:32.782Z,68.13
2022-12-16T05:35:13.110Z,76.03
2022-12-16T05:38:53.511Z,67.70
2022-12-16T05:42:34.012Z,68.83
2022-12-16T05:46:15.913Z,76.23
2022-12-16T05:49:56.306Z,68.50
2022-12-16T05:53:36.783Z,71.80
2022-12-16T05:57:18.281Z,70.70
2022-12-16T06:00:58.896Z,65.97
2022-12-16T06:04:40.634Z,77.47
2022-12-16T06:08:20.961Z,97.60
2022-12-16T06:12:04.899Z,89.77
2022-12-16T06:15:45.259Z,96.23
2022-12-16T06:19:25.614Z,90.17
2022-12-16T06:23:13.957Z,98.63
2022-12-16T06:26:55.938Z,102.40
2022-12-16T06:30:36.264Z,100.43
2022-12-16T06:34:16.742Z,110.30
2022-12-16T06:37:57.367Z,109.87
2022-12-16T06:41:39.337Z,103.97
2022-12-16T06:45:19.903Z,115.47
2022-12-16T06:49:00.465Z,97.90
2022-12-16T06:52:41.215Z,106.97
2022-12-16T06:56:21.800Z,112.87
2022-12-16T07:00:03.630Z,114.27
2022-12-16T07:03:44.227Z,111.50
2022-12-16T07:07:25.023Z,124.03
2022-12-16T07:11:16.075Z,114.50
2022-12-16T07:14:56.921Z,112.77
2022-12-16T07:18:38.861Z,106.30
2022-12-16T07:22:24.491Z,115.37
2022-12-16T07:26:05.057Z,111.37
2022-12-16T07:29:49.452Z,98.20
2022-12-16T07:33:31.749Z,106.37
2022-12-16T07:37:13.816Z,109.70
2022-12-16T07:40:54.318Z,89.60
2022-12-16T07:44:35.627Z,85.50
2022-12-16T07:48:16.182Z,87.33
2022-12-16T07:52:11.043Z,92.37
2022-12-16T07:55:52.924Z,97.47
2022-12-16T07:59:34.708Z,85.27
2022-12-16T08:03:15.558Z,92.60
2022-12-16T08:06:55.912Z,92.73
2022-12-16T08:10:36.575Z,86.33
2022-12-16T08:14:14.771Z,95.47
2022-12-16T08:17:55.508Z,86.73
2022-12-16T08:21:35.725Z,92.43
2022-12-16T08:25:16.063Z,93.77
2022-12-16T08:29:02.084Z,88.13
2022-12-16T08:33:09.463Z,80.40
2022-12-16T08:36:55.428Z,83.67
2022-12-16T08:40:36.732Z,86.47
2022-12-16T08:44:17.291Z,81.67
2022-12-16T08:47:59.410Z,90.37
2022-12-16T08:51:40.114Z,87.97
2022-12-16T08:55:23.539Z,78.10
2022-12-16T08:59:07.932Z,86.17
2022-12-16T09:02:48.252Z,82.33
2022-12-16T09:06:31.003Z,77.73
2022-12-16T09:10:13.732Z,81.50
2022-12-16T09:13:54.299Z,82.13
2022-12-16T09:17:39.275Z,85.10
2022-12-16T09:21:19.685Z,73.17
2022-12-16T09:25:01.462Z,77.00
2022-12-16T09:28:41.934Z,84.20
2022-12-16T09:32:22.462Z,78.60
2022-12-16T09:36:03.233Z,79.83
2022-12-16T09:39:43.848Z,87.10
2022-12-16T09:43:34.322Z,90.20
2022-12-16T09:47:24.411Z,88.73
2022-12-16T09:51:05.558Z,89.43
2022-12-16T09:54:50.474Z,99.93
2022-12-16T09:58:35.752Z,98.67
2022-12-16T10:02:16.444Z,95.27
2022-12-16T10:06:06.950Z,102.00
2022-12-16T10:09:50.761Z,94.83
2022-12-16T10:13:38.901Z,95.40
2022-12-16T10:17:29.215Z,112.63
2022-12-16T10:21:13.462Z,127.67
2022-12-16T10:25:05.196Z,111.30
2022-12-16T10:29:02.935Z,119.13
2022-12-16T10:32:49.396Z,116.30
2022-12-16T10:36:34.438Z,123.47
2022-12-16T10:40:18.312Z,115.63
2022-12-16T10:44:11.530Z,116.80
2022-12-16T10:47:52.323Z,130.97
2022-12-16T10:51:34.629Z,135.63
2022-12-16T10:55:21.850Z,140.87
2022-12-16T10:59:09.336Z,136.60
2022-12-16T11:02:51.475Z,140.17
2022-12-16T11:06:36.748Z,142.97
2022-12-16T11:10:21.514Z,134.20
2022-12-16T11:14:03.377Z,138.07
2022-12-16T11:17:44.841Z,124.83
2022-12-16T11:21:32.876Z,136.60
2022-12-16T11:25:24.069Z,128.00
2022-12-16T11:29:04.774Z,137.73
2022-12-16T11:32:57.821Z,140.00
2022-12-16T11:36:42.292Z,153.27
2022-12-16T11:40:27.355Z,182.50
2022-12-16T11:44:10.859Z,152.33
2022-12-16T11:47:57.233Z,164.77
2022-12-16T11:51:40.736Z,166.27
2022-12-16T11:59:46.241Z,169.33
2022-12-16T12:03:39.832Z,185.07
2022-12-16T12:07:45.403Z,183.97
2022-12-16T12:11:35.554Z,169.90
2022-12-16T12:15:26.312Z,186.53
2022-12-16T12:19:17.670Z,184.53
2022-12-16T12:22:59.667Z,177.67
2022-12-16T12:26:46.633Z,165.77
2022-12-16T12:30:31.544Z,173.27
2022-12-16T12:34:22.219Z,171.53
2022-12-16T12:38:11.626Z,167.33
2022-12-16T12:42:15.651Z,170.97
2022-12-16T12:46:06.616Z,152.73
2022-12-16T12:49:54.968Z,157.00
2022-12-16T12:53:48.210Z,146.57
2022-12-16T12:57:33.837Z,172.23
2022-12-16T13:01:17.654Z,129.60
2022-12-16T13:04:58.932Z,160.37
2022-12-16T13:09:02.346Z,148.60
2022-12-16T13:12:46.238Z,156.93
2022-12-16T13:16:30.774Z,160.53
2022-12-16T13:20:15.447Z,151.20
2022-12-16T13:23:58.858Z,154.33
2022-12-16T13:27:40.224Z,159.37
2022-12-16T13:31:25.901Z,142.13
2022-12-16T13:35:18.425Z,163.13
2022-12-16T13:39:06.425Z,153.60
2022-12-16T13:43:08.536Z,164.47
2022-12-16T13:46:59.581Z,141.03
2022-12-16T13:50:58.206Z,156.90
2022-12-16T13:54:44.781Z,162.80
2022-12-16T13:58:45.339Z,166.60
2022-12-16T14:02:38.311Z,166.47
2022-12-16T14:06:22.600Z,186.10
2022-12-16T14:10:22.257Z,176.03
2022-12-16T14:14:09.033Z,195.43
2022-12-16T14:17:56.740Z,174.60
2022-12-16T14:21:44.366Z,186.97
2022-12-16T14:25:33.283Z,182.53
2022-12-16T14:29:14.907Z,164.00
2022-12-16T14:32:55.245Z,176.80
2022-12-16T14:36:40.981Z,184.90
2022-12-16T14:40:22.501Z,188.93
2022-12-16T14:44:04.672Z,186.13
2022-12-16T14:48:04.384Z,185.27
2022-12-16T14:51:47.854Z,187.33
2022-12-16T14:55:34.432Z,175.13
2022-12-16T14:59:27.998Z,168.30
2022-12-16T15:03:11.658Z,181.10
2022-12-16T15:06:57.864Z,166.70
2022-12-16T15:10:42.349Z,181.57
2022-12-16T15:14:25.200Z,161.90
2022-12-16T15:18:10.946Z,160.60
2022-12-16T15:21:52.616Z,178.10
2022-12-16T15:25:39.507Z,169.53
2022-12-16T15:29:19.827Z,202.43
2022-12-16T15:33:01.131Z,177.37
2022-12-16T15:36:48.687Z,150.53
2022-12-16T15:40:41.460Z,135.40
2022-12-16T15:44:21.849Z,166.60
2022-12-16T15:48:02.429Z,140.03
2022-12-16T15:51:49.926Z,143.33
2022-12-16T15:55:49.550Z,142.93
2022-12-16T15:59:41.307Z,144.33
2022-12-16T16:03:21.928Z,131.60
2022-12-16T16:07:07.893Z,149.20
2022-12-16T16:10:48.949Z,159.00
2022-12-16T16:14:29.640Z,145.33
2022-12-16T16:18:15.138Z,160.00
2022-12-16T16:21:55.746Z,144.43
2022-12-16T16:25:37.479Z,148.77
2022-12-16T16:29:18.672Z,135.80
2022-12-16T16:32:59.610Z,144.80
2022-12-16T16:36:40.236Z,144.77
2022-12-16T16:40:28.993Z,131.63
2022-12-16T16:44:15.147Z,142.10
2022-12-16T16:47:57.524Z,153.67
2022-12-16T16:51:38.287Z,133.33
2022-12-16T16:55:18.849Z,134.63
2022-12-16T16:58:59.529Z,139.33
2022-12-16T17:02:43.150Z,123.60
2022-12-16T17:06:24.478Z,129.17
2022-12-16T17:10:04.989Z,119.80
2022-12-16T17:13:57.458Z,121.87
2022-12-16T17:17:37.984Z,121.30
2022-12-16T17:21:19.920Z,122.77
2022-12-16T17:25:00.635Z,117.73
2022-12-16T17:28:40.932Z,118.37
2022-12-16T17:32:21.373Z,133.13
2022-12-16T17:36:13.461Z,129.33
2022-12-16T17:39:55.555Z,125.37
2022-12-16T17:43:36.534Z,124.37
2022-12-16T17:47:17.152Z,128.60
2022-12-16T17:50:57.983Z,130.67
2022-12-16T17:54:38.589Z,125.83
2022-12-16T17:58:20.564Z,128.00
2022-12-16T18:02:00.982Z,120.90
2022-12-16T18:05:44.620Z,118.17
2022-12-16T18:09:25.593Z,132.07
2022-12-16T18:13:06.650Z,123.90
2022-12-16T18:16:48.862Z,130.17
2022-12-16T18:20:29.900Z,126.37
2022-12-16T18:24:10.379Z,121.73
2022-12-16T18:27:51.606Z,142.40
2022-12-16T18:31:32.019Z,128.47
2022-12-16T18:35:13.805Z,113.60
2022-12-16T18:39:05.570Z,134.83
2022-12-16T18:42:45.980Z,150.73
2022-12-16T18:46:34.420Z,144.27
2022-12-16T18:50:16.106Z,129.13
2022-12-16T18:53:56.645Z,135.87
2022-12-16T18:57:39.805Z,187.50
2022-12-16T19:01:21.008Z,164.50
2022-12-16T19:05:01.459Z,191.13
2022-12-16T19:08:43.479Z,197.63
2022-12-16T19:12:24.183Z,208.27
2022-12-16T19:16:12.315Z,182.73
2022-12-16T19:19:52.593Z,173.53
2022-12-16T19:23:34.401Z,182.30
2022-12-16T19:27:19.349Z,196.63
2022-12-16T19:31:15.069Z,178.93
2022-12-16T19:34:56.839Z,173.07
2022-12-16T19:38:37.483Z,176.73
2022-12-16T19:42:19.633Z,171.93
2022-12-16T19:46:00.227Z,184.13
2022-12-16T19:49:44.192Z,169.10
2022-12-16T19:53:25.481Z,196.63
2022-12-16T19:57:05.923Z,178.80
2022-12-16T20:00:47.663Z,170.70
2022-12-16T20:04:28.237Z,179.10
2022-12-16T20:08:09.356Z,171.50
2022-12-16T20:11:50.200Z,159.53
2022-12-16T20:15:30.680Z,176.83
2022-12-16T20:19:13.273Z,176.20
2022-12-16T20:22:53.185Z,176.70
2022-12-16T20:26:36.655Z,186.93
2022-12-16T20:30:17.652Z,178.70
2022-12-16T20:34:02.957Z,191.40
2022-12-16T20:37:45.145Z,197.43
2022-12-16T20:41:25.506Z,177.83
2022-12-16T20:45:05.710Z,174.83
2022-12-16T20:48:47.313Z,180.57
2022-12-16T20:52:28.302Z,166.60
2022-12-16T20:56:09.412Z,170.60
2022-12-16T20:59:49.986Z,148.13
2022-12-16T21:03:30.624Z,163.90
2022-12-16T21:07:11.457Z,154.30
2022-12-16T21:10:51.926Z,151.53
2022-12-16T21:14:34.281Z,173.50
2022-12-16T21:18:19.249Z,171.37
2022-12-16T21:21:59.857Z,174.37
2022-12-16T21:25:40.475Z,177.37
2022-12-16T21:29:21.123Z,195.40
2022-12-16T21:33:02.917Z,182.33
2022-12-16T21:36:43.450Z,165.57
2022-12-16T21:40:24.849Z,156.50
2022-12-16T21:44:05.506Z,171.40
2022-12-16T21:47:46.321Z,161.50
2022-12-16T21:51:28.515Z,139.23
2022-12-16T21:55:09.114Z,149.13
2022-12-16T21:58:49.891Z,134.83
2022-12-16T22:02:31.980Z,161.37
2022-12-16T22:06:12.720Z,154.63
2022-12-16T22:13:57.946Z,150.50
2022-12-16T22:17:38.645Z,126.57
2022-12-16T22:21:21.127Z,132.10
2022-12-16T22:25:02.844Z,133.70
2022-12-16T22:28:43.669Z,135.47
2022-12-16T22:32:25.073Z,129.80
2022-12-16T22:36:05.569Z,134.60
2022-12-16T22:39:46.197Z,126.67
2022-12-16T22:43:28.050Z,129.20
2022-12-16T22:47:08.784Z,128.83
2022-12-16T22:50:51.803Z,136.90
2022-12-16T22:54:32.352Z,153.40
2022-12-16T22:58:13.278Z,166.23
2022-12-16T23:01:55.528Z,143.60
2022-12-16T23:05:37.750Z,140.27
2022-12-16T23:09:18.434Z,131.83
2022-12-16T23:12:58.871Z,121.27
2022-12-16T23:16:39.462Z,132.77
2022-12-16T23:20:21.516Z,132.67
2022-12-16T23:24:02.154Z,117.23
2022-12-16T23:27:42.558Z,129.67
2022-12-16T23:31:23.386Z,119.40
2022-12-16T23:35:04.016Z,121.23
2022-12-16T23:38:45.963Z,134.30
2022-12-16T23:42:26.383Z,117.80
2022-12-16T23:46:06.604Z,117.60
2022-12-16T23:49:46.928Z,128.63
2022-12-16T23:53:29.277Z,116.97
2022-12-16T23:57:11.429Z,108.93
